createdAt,value
2023-01-29T00:00:35.721Z,59.68
2023-01-29T00:03:03.325Z,60.12
2023-01-29T00:05:30.836Z,60.54
2023-01-29T00:07:58.430Z,59.68
2023-01-29T00:10:26.769Z,59.96
2023-01-29T00:12:54.702Z,59.89
2023-01-29T00:15:22.154Z,59.50
2023-01-29T00:17:49.844Z,59.42
2023-01-29T00:20:18.391Z,59.77
2023-01-29T00:22:45.934Z,60.00
2023-01-29T00:25:13.517Z,59.74
2023-01-29T00:27:41.168Z,60.37
2023-01-29T00:30:12.245Z,59.40
2023-01-29T00:32:41.013Z,59.35
2023-01-29T00:35:09.771Z,59.34
2023-01-29T00:37:37.867Z,59.37
2023-01-29T00:40:06.331Z,59.92
2023-01-29T00:42:52.286Z,60.01
2023-01-29T00:45:19.933Z,59.90
2023-01-29T00:47:48.617Z,59.10
2023-01-29T00:50:16.318Z,59.41
2023-01-29T00:52:44.100Z,59.38
2023-01-29T00:55:12.190Z,59.61
2023-01-29T00:57:40.489Z,59.76
2023-01-29T01:00:13.263Z,59.54
2023-01-29T01:02:59.641Z,59.54
2023-01-29T01:05:27.610Z,60.59
2023-01-29T01:07:57.624Z,59.58
2023-01-29T01:10:31.776Z,60.06
2023-01-29T01:13:04.674Z,60.54
2023-01-29T01:15:36.361Z,60.99
2023-01-29T01:18:04.697Z,60.72
2023-01-29T01:20:35.251Z,60.56
2023-01-29T01:23:03.685Z,60.42
2023-01-29T01:25:31.434Z,60.21
2023-01-29T01:30:33.069Z,59.65
2023-01-29T01:33:01.936Z,59.53
2023-01-29T01:35:29.837Z,59.54
2023-01-29T01:37:57.308Z,58.70
2023-01-29T01:40:26.627Z,59.68
2023-01-29T01:42:57.527Z,59.60
2023-01-29T01:45:27.996Z,59.57
2023-01-29T01:48:16.841Z,58.73
2023-01-29T01:51:06.060Z,59.69
2023-01-29T01:53:42.007Z,60.58
2023-01-29T01:56:14.566Z,60.29
2023-01-29T01:58:50.979Z,60.57
2023-01-29T02:01:19.308Z,59.77
2023-01-29T02:04:13.118Z,60.28
2023-01-29T02:06:59.714Z,59.85
2023-01-29T02:09:38.160Z,59.29
2023-01-29T02:12:31.521Z,59.88
2023-01-29T02:15:07.703Z,59.74
2023-01-29T02:17:37.076Z,60.39
2023-01-29T02:20:08.986Z,60.48
2023-01-29T02:22:56.313Z,59.73
2023-01-29T02:26:08.561Z,59.74
2023-01-29T02:29:22.018Z,60.72
2023-01-29T02:31:56.960Z,60.49
2023-01-29T02:34:55.551Z,60.03
2023-01-29T02:37:39.609Z,59.93
2023-01-29T02:40:34.822Z,60.25
2023-01-29T02:43:19.953Z,59.24
2023-01-29T02:45:54.516Z,58.97
2023-01-29T02:48:25.855Z,59.27
2023-01-29T02:51:05.912Z,58.92
2023-01-29T02:53:45.705Z,58.79
2023-01-29T02:56:24.935Z,59.02
2023-01-29T02:59:05.294Z,59.71
2023-01-29T03:01:40.398Z,59.06
2023-01-29T03:04:12.437Z,59.03
2023-01-29T03:06:45.598Z,59.82
2023-01-29T03:09:20.405Z,59.68
2023-01-29T03:11:53.133Z,59.39
2023-01-29T03:15:11.832Z,59.26
2023-01-29T03:18:09.785Z,58.85
2023-01-29T03:21:01.162Z,59.76
2023-01-29T03:23:50.853Z,59.48
2023-01-29T03:26:41.196Z,59.54
2023-01-29T03:29:29.253Z,60.30
2023-01-29T03:32:07.084Z,59.67
2023-01-29T03:34:44.019Z,59.08
2023-01-29T03:37:19.706Z,58.69
2023-01-29T03:39:47.491Z,59.23
2023-01-29T03:42:48.274Z,59.26
2023-01-29T03:45:44.695Z,59.79
2023-01-29T03:48:34.247Z,59.85
2023-01-29T03:51:28.079Z,60.94
2023-01-29T03:54:26.721Z,61.25
2023-01-29T03:57:02.562Z,60.63
2023-01-29T03:59:36.565Z,60.91
2023-01-29T04:02:28.264Z,61.15
2023-01-29T04:05:04.573Z,60.83
2023-01-29T04:07:37.581Z,61.04
2023-01-29T04:10:25.621Z,61.25
2023-01-29T04:12:56.770Z,61.09
2023-01-29T04:15:29.142Z,60.48
2023-01-29T04:17:57.925Z,60.75
2023-01-29T04:20:36.221Z,60.53
2023-01-29T04:23:07.315Z,61.08
2023-01-29T04:25:45.915Z,60.98
2023-01-29T04:28:35.133Z,60.57
2023-01-29T04:31:11.764Z,61.20
2023-01-29T04:33:59.508Z,61.01
2023-01-29T04:36:56.652Z,60.72
2023-01-29T04:39:48.798Z,60.89
2023-01-29T04:42:29.805Z,61.05
2023-01-29T04:45:05.036Z,61.83
2023-01-29T04:47:42.225Z,61.63
2023-01-29T04:50:24.153Z,61.66
2023-01-29T04:53:12.414Z,61.76
2023-01-29T04:55:39.699Z,61.15
2023-01-29T04:58:10.509Z,61.65
2023-01-29T05:00:43.389Z,61.28
2023-01-29T05:03:15.862Z,61.54
2023-01-29T05:05:48.319Z,61.80
2023-01-29T05:08:21.090Z,61.35
2023-01-29T05:10:50.807Z,61.40
2023-01-29T05:13:20.623Z,61.46
2023-01-29T05:16:00.788Z,61.06
2023-01-29T05:18:30.352Z,60.60
2023-01-29T05:21:02.115Z,60.47
2023-01-29T05:23:29.604Z,60.08
2023-01-29T05:25:57.149Z,59.65
2023-01-29T05:28:24.595Z,59.84
2023-01-29T05:30:54.680Z,59.59
2023-01-29T05:33:26.151Z,58.94
2023-01-29T05:35:54.338Z,59.29
2023-01-29T05:38:22.658Z,58.91
2023-01-29T05:40:50.123Z,58.49
2023-01-29T05:43:20.384Z,58.22
2023-01-29T05:45:59.185Z,58.41
2023-01-29T05:48:29.267Z,58.17
2023-01-29T05:51:04.093Z,58.20
2023-01-29T05:53:32.981Z,58.46
2023-01-29T05:56:04.117Z,57.49
2023-01-29T05:58:32.719Z,58.03
2023-01-29T06:01:16.450Z,57.59
2023-01-29T06:03:44.874Z,58.13
2023-01-29T06:06:13.182Z,57.20
2023-01-29T06:08:41.100Z,58.09
2023-01-29T06:11:10.399Z,57.55
2023-01-29T06:13:38.946Z,57.72
2023-01-29T06:16:07.791Z,58.31
2023-01-29T06:18:36.376Z,58.54
2023-01-29T06:21:09.870Z,57.26
2023-01-29T06:23:37.931Z,58.19
2023-01-29T06:26:11.788Z,57.73
2023-01-29T06:28:40.316Z,57.76
2023-01-29T06:31:27.175Z,57.53
2023-01-29T06:33:56.389Z,57.50
2023-01-29T06:36:23.812Z,57.51
2023-01-29T06:38:51.334Z,57.54
2023-01-29T06:41:20.864Z,57.07
2023-01-29T06:46:32.759Z,56.25
2023-01-29T06:49:03.312Z,55.84
2023-01-29T06:51:30.928Z,56.08
2023-01-29T06:53:58.781Z,55.73
2023-01-29T06:56:26.388Z,56.01
2023-01-29T06:58:53.860Z,56.29
2023-01-29T07:01:35.055Z,55.43
2023-01-29T07:04:04.247Z,55.38
2023-01-29T07:06:33.994Z,55.10
2023-01-29T07:09:01.680Z,55.68
2023-01-29T07:11:29.118Z,55.04
2023-01-29T07:13:56.818Z,54.58
2023-01-29T07:16:25.264Z,54.26
2023-01-29T07:18:52.855Z,53.90
2023-01-29T07:21:20.386Z,53.44
2023-01-29T07:23:47.807Z,53.54
2023-01-29T07:26:15.420Z,53.23
2023-01-29T07:28:42.981Z,53.38
2023-01-29T07:31:13.909Z,52.03
2023-01-29T07:33:44.033Z,52.13
2023-01-29T07:36:12.605Z,51.56
2023-01-29T07:38:40.243Z,51.87
2023-01-29T07:41:08.016Z,52.41
2023-01-29T07:43:35.811Z,52.04
2023-01-29T07:46:04.824Z,51.64
2023-01-29T07:48:33.031Z,51.52
2023-01-29T07:51:00.687Z,50.95
2023-01-29T07:53:29.388Z,50.85
2023-01-29T07:55:57.122Z,49.59
2023-01-29T07:58:24.877Z,50.11
2023-01-29T08:00:52.363Z,50.80
2023-01-29T08:03:21.155Z,49.73
2023-01-29T08:05:48.578Z,49.91
2023-01-29T08:11:05.853Z,50.20
2023-01-29T08:13:33.726Z,49.32
2023-01-29T08:16:02.595Z,49.08
2023-01-29T08:18:31.745Z,49.42
2023-01-29T08:21:02.815Z,49.93
2023-01-29T08:23:30.745Z,49.54
2023-01-29T08:25:58.225Z,49.22
2023-01-29T08:28:25.735Z,49.48
2023-01-29T08:30:53.321Z,49.72
2023-01-29T08:33:29.700Z,50.00
2023-01-29T08:36:01.266Z,49.71
2023-01-29T08:38:29.778Z,49.70
2023-01-29T08:43:47.217Z,50.96
2023-01-29T08:46:14.630Z,50.36
2023-01-29T08:48:42.132Z,49.97
2023-01-29T08:51:10.449Z,49.55
2023-01-29T08:53:39.491Z,49.14
2023-01-29T08:56:07.132Z,49.58
2023-01-29T08:58:34.616Z,49.27
2023-01-29T09:01:10.267Z,49.58
2023-01-29T09:03:41.231Z,49.15
2023-01-29T09:06:10.939Z,49.89
2023-01-29T09:08:39.359Z,49.61
2023-01-29T09:13:48.899Z,50.29
2023-01-29T09:16:17.249Z,50.65
2023-01-29T09:18:46.162Z,50.09
2023-01-29T09:21:13.541Z,49.69
2023-01-29T09:23:41.139Z,49.91
2023-01-29T09:26:11.767Z,49.90
2023-01-29T09:28:39.250Z,50.23
2023-01-29T09:31:06.892Z,51.57
2023-01-29T09:33:53.523Z,51.42
2023-01-29T09:36:21.087Z,51.65
2023-01-29T09:38:48.541Z,51.10
2023-01-29T09:41:15.963Z,51.16
2023-01-29T09:43:56.119Z,50.70
2023-01-29T09:46:26.484Z,51.82
2023-01-29T09:51:55.866Z,52.61
2023-01-29T09:54:36.523Z,52.51
2023-01-29T09:57:04.367Z,52.59
2023-01-29T09:59:32.845Z,52.75
2023-01-29T10:02:15.745Z,52.09
2023-01-29T10:04:52.438Z,52.56
2023-01-29T10:07:41.967Z,51.53
2023-01-29T10:10:40.585Z,52.27
2023-01-29T10:13:48.668Z,52.55
2023-01-29T10:17:08.393Z,52.96
2023-01-29T10:19:50.947Z,52.71
2023-01-29T10:22:43.251Z,53.18
2023-01-29T10:25:14.287Z,53.32
2023-01-29T10:27:45.807Z,53.16
2023-01-29T10:30:36.020Z,54.09
2023-01-29T10:33:06.364Z,53.11
2023-01-29T10:35:49.942Z,52.62
2023-01-29T10:38:49.453Z,52.71
2023-01-29T10:41:38.426Z,52.16
2023-01-29T10:44:30.507Z,52.06
2023-01-29T10:47:35.853Z,51.04
2023-01-29T10:50:19.892Z,51.80
2023-01-29T10:53:28.853Z,52.15
2023-01-29T10:56:27.497Z,52.67
2023-01-29T10:58:57.190Z,52.58
2023-01-29T11:01:27.148Z,52.16
2023-01-29T11:04:02.421Z,52.29
2023-01-29T11:06:35.540Z,52.63
2023-01-29T11:09:29.415Z,52.40
2023-01-29T11:12:38.537Z,51.98
2023-01-29T11:15:29.087Z,52.33
2023-01-29T11:18:07.004Z,51.86
2023-01-29T11:20:34.836Z,52.51
2023-01-29T11:23:02.269Z,52.43
2023-01-29T11:25:33.520Z,52.42
2023-01-29T11:28:02.875Z,51.75
2023-01-29T11:30:38.906Z,51.47
2023-01-29T11:33:12.197Z,52.05
2023-01-29T11:35:39.629Z,51.67
2023-01-29T11:38:18.813Z,52.29
2023-01-29T11:40:46.890Z,52.66
2023-01-29T11:43:23.382Z,52.02
2023-01-29T11:45:53.967Z,52.52
2023-01-29T11:48:27.388Z,52.17
2023-01-29T11:53:54.590Z,52.89
2023-01-29T11:56:45.786Z,52.03
2023-01-29T11:59:44.449Z,51.54
2023-01-29T12:02:31.138Z,51.53
2023-01-29T12:05:14.786Z,50.63
2023-01-29T12:07:49.337Z,51.10
2023-01-29T12:10:37.886Z,52.02
2023-01-29T12:13:05.563Z,51.57
2023-01-29T12:15:37.650Z,51.51
2023-01-29T12:18:23.983Z,51.82
2023-01-29T12:21:46.093Z,51.27
2023-01-29T12:24:13.585Z,51.25
2023-01-29T12:27:22.679Z,52.03
2023-01-29T12:29:57.862Z,51.82
2023-01-29T12:32:25.044Z,51.39
2023-01-29T12:35:22.177Z,51.19
2023-01-29T12:37:55.304Z,51.64
2023-01-29T12:40:27.489Z,52.34
2023-01-29T12:43:01.972Z,52.54
2023-01-29T12:45:30.788Z,53.23
2023-01-29T12:48:07.979Z,52.97
2023-01-29T12:50:38.126Z,52.59
2023-01-29T12:53:30.151Z,53.46
2023-01-29T12:56:06.403Z,52.17
2023-01-29T12:58:40.283Z,52.34
2023-01-29T13:01:16.390Z,52.49
2023-01-29T13:04:00.203Z,52.73
2023-01-29T13:06:34.578Z,52.68
2023-01-29T13:09:14.925Z,53.37
2023-01-29T13:11:56.250Z,53.32
2023-01-29T13:14:30.041Z,53.60
2023-01-29T13:17:08.652Z,53.35
2023-01-29T13:19:45.664Z,53.61
2023-01-29T13:22:41.503Z,53.89
2023-01-29T13:25:15.900Z,53.64
2023-01-29T13:27:46.029Z,54.26
2023-01-29T13:30:30.942Z,53.75
2023-01-29T13:33:11.459Z,54.02
2023-01-29T13:35:41.971Z,54.48
2023-01-29T13:38:29.920Z,54.62
2023-01-29T13:41:02.923Z,54.29
2023-01-29T13:43:37.876Z,54.95
2023-01-29T13:46:14.989Z,55.20
2023-01-29T13:48:45.469Z,55.70
2023-01-29T13:51:20.874Z,55.05
2023-01-29T13:54:17.973Z,54.87
2023-01-29T13:57:05.800Z,55.26
2023-01-29T13:59:52.361Z,55.83
2023-01-29T14:02:25.068Z,55.06
2023-01-29T14:05:14.581Z,54.84
2023-01-29T14:07:51.755Z,55.54
2023-01-29T14:10:22.030Z,55.87
2023-01-29T14:12:55.770Z,55.91
2023-01-29T14:15:30.111Z,56.54
2023-01-29T14:18:05.458Z,56.91
2023-01-29T14:20:45.127Z,56.47
2023-01-29T14:23:19.350Z,55.81
2023-01-29T14:25:47.646Z,56.58
2023-01-29T14:28:21.606Z,57.21
2023-01-29T14:30:50.100Z,57.44
2023-01-29T14:33:37.013Z,57.43
2023-01-29T14:36:13.819Z,57.20
2023-01-29T14:38:52.651Z,56.59
2023-01-29T14:41:31.427Z,57.51
2023-01-29T14:44:40.754Z,57.83
2023-01-29T14:47:19.640Z,57.16
2023-01-29T14:49:57.283Z,57.20
2023-01-29T14:52:40.914Z,57.17
2023-01-29T14:55:19.499Z,56.77
2023-01-29T14:57:49.682Z,57.17
2023-01-29T15:00:26.840Z,56.80
2023-01-29T15:03:02.044Z,56.88
2023-01-29T15:05:36.311Z,57.88
2023-01-29T15:08:14.331Z,58.08
2023-01-29T15:11:23.824Z,57.78
2023-01-29T15:13:57.314Z,57.97
2023-01-29T15:16:36.112Z,58.99
2023-01-29T15:19:22.376Z,58.66
2023-01-29T15:22:14.044Z,58.40
2023-01-29T15:24:43.557Z,59.01
2023-01-29T15:27:19.709Z,58.88
2023-01-29T15:29:59.452Z,59.73
2023-01-29T15:32:33.946Z,59.62
2023-01-29T15:35:06.348Z,59.19
2023-01-29T15:37:35.697Z,59.53
2023-01-29T15:40:07.200Z,59.42
2023-01-29T15:42:49.038Z,59.47
2023-01-29T15:45:24.425Z,59.58
2023-01-29T15:47:54.712Z,59.11
2023-01-29T15:50:22.542Z,59.30
2023-01-29T15:52:53.943Z,59.86
2023-01-29T15:55:24.152Z,59.75
2023-01-29T15:57:51.979Z,59.16
2023-01-29T16:00:30.389Z,59.34
2023-01-29T16:02:58.695Z,58.97
2023-01-29T16:05:33.210Z,59.49
2023-01-29T16:08:01.723Z,60.17
2023-01-29T16:10:31.751Z,59.74
2023-01-29T16:13:13.153Z,60.45
2023-01-29T16:16:05.022Z,60.57
2023-01-29T16:18:50.660Z,61.13
2023-01-29T16:21:28.717Z,60.85
2023-01-29T16:24:10.335Z,61.55
2023-01-29T16:26:43.865Z,61.57
2023-01-29T16:29:23.875Z,62.08
2023-01-29T16:32:00.733Z,61.42
2023-01-29T16:34:35.230Z,61.39
2023-01-29T16:37:07.188Z,61.59
2023-01-29T16:39:44.839Z,62.15
2023-01-29T16:42:20.228Z,61.76
2023-01-29T16:44:50.650Z,61.50
2023-01-29T16:47:25.926Z,60.99
2023-01-29T16:50:18.509Z,60.34
2023-01-29T16:53:11.339Z,61.08
2023-01-29T16:55:42.752Z,61.71
2023-01-29T16:58:17.731Z,60.91
2023-01-29T17:00:50.932Z,60.51
2023-01-29T17:03:19.079Z,60.54
2023-01-29T17:05:48.116Z,61.08
2023-01-29T17:08:25.916Z,60.64
2023-01-29T17:10:54.178Z,60.61
2023-01-29T17:13:34.253Z,60.34
2023-01-29T17:16:04.269Z,60.84
2023-01-29T17:18:32.064Z,60.73
2023-01-29T17:20:59.949Z,60.95
2023-01-29T17:23:27.344Z,60.37
2023-01-29T17:25:54.983Z,60.89
2023-01-29T17:28:22.535Z,62.25
2023-01-29T17:31:05.036Z,62.08
2023-01-29T17:33:33.915Z,61.99
2023-01-29T17:36:01.395Z,61.76
2023-01-29T17:38:29.064Z,61.11
2023-01-29T17:41:04.810Z,60.90
2023-01-29T17:43:32.564Z,60.59
2023-01-29T17:46:00.216Z,61.03
2023-01-29T17:48:29.720Z,60.83
2023-01-29T17:51:00.892Z,60.36
2023-01-29T17:53:44.351Z,60.98
2023-01-29T18:04:38.586Z,60.44
2023-01-29T18:09:47.402Z,61.25
2023-01-29T18:12:14.903Z,61.46
2023-01-29T18:14:42.410Z,61.02
2023-01-29T18:17:09.851Z,60.67
2023-01-29T18:19:37.497Z,61.32
2023-01-29T18:22:04.951Z,61.51
2023-01-29T18:24:32.517Z,61.53
2023-01-29T18:26:59.974Z,61.79
2023-01-29T18:29:30.344Z,61.36
2023-01-29T18:31:57.884Z,61.11
2023-01-29T18:34:25.617Z,61.45
2023-01-29T18:39:43.596Z,61.82
2023-01-29T18:42:10.961Z,60.88
2023-01-29T18:44:38.562Z,61.25
2023-01-29T18:47:06.075Z,61.20
2023-01-29T18:49:33.650Z,61.21
2023-01-29T18:52:01.027Z,60.99
2023-01-29T18:54:29.864Z,60.75
2023-01-29T18:57:13.476Z,60.89
2023-01-29T18:59:42.795Z,61.16
2023-01-29T19:02:18.040Z,60.78
2023-01-29T19:04:46.353Z,60.04
2023-01-29T19:07:15.087Z,60.66
2023-01-29T19:09:43.936Z,60.69
2023-01-29T19:12:11.496Z,60.38
2023-01-29T19:14:39.019Z,60.32
2023-01-29T19:17:06.447Z,61.17
2023-01-29T19:22:27.379Z,61.28
2023-01-29T19:24:54.889Z,61.55
2023-01-29T19:27:22.407Z,61.93
2023-01-29T19:29:51.277Z,61.89
2023-01-29T19:32:19.332Z,61.08
2023-01-29T19:34:46.747Z,61.38
2023-01-29T19:37:14.757Z,60.83
2023-01-29T19:39:42.219Z,60.90
2023-01-29T19:42:09.826Z,60.84
2023-01-29T19:44:39.233Z,60.52
2023-01-29T19:47:06.810Z,60.50
2023-01-29T19:49:45.032Z,60.67
2023-01-29T19:52:49.739Z,60.76
2023-01-29T19:55:19.255Z,60.23
2023-01-29T19:57:47.670Z,59.93
2023-01-29T20:00:17.681Z,59.78
2023-01-29T20:02:45.643Z,59.46
2023-01-29T20:05:16.750Z,59.53
2023-01-29T20:07:45.209Z,60.01
2023-01-29T20:10:17.727Z,60.28
2023-01-29T20:12:46.637Z,60.54
2023-01-29T20:15:14.958Z,59.73
2023-01-29T20:17:43.570Z,60.31
2023-01-29T20:20:11.363Z,60.48
2023-01-29T20:22:38.945Z,59.53
2023-01-29T20:25:06.765Z,59.70
2023-01-29T20:27:34.216Z,59.57
2023-01-29T20:30:02.856Z,59.25
2023-01-29T20:32:33.187Z,60.04
2023-01-29T20:35:02.045Z,60.29
2023-01-29T20:37:30.141Z,59.36
2023-01-29T20:39:57.651Z,60.24
2023-01-29T20:42:25.198Z,60.50
2023-01-29T20:44:52.714Z,60.11
2023-01-29T20:47:20.126Z,59.85
2023-01-29T20:49:47.819Z,59.95
2023-01-29T20:52:16.330Z,59.50
2023-01-29T20:54:43.759Z,59.89
2023-01-29T20:57:12.793Z,59.14
2023-01-29T20:59:45.310Z,59.69
2023-01-29T21:02:16.101Z,60.42
2023-01-29T21:07:28.159Z,59.50
2023-01-29T21:09:58.692Z,58.92
2023-01-29T21:12:26.193Z,59.03
2023-01-29T21:14:53.583Z,59.54
2023-01-29T21:17:21.226Z,59.32
2023-01-29T21:19:48.580Z,59.29
2023-01-29T21:22:16.959Z,58.99
2023-01-29T21:24:44.423Z,59.56
2023-01-29T21:27:11.934Z,59.34
2023-01-29T21:29:39.377Z,59.38
2023-01-29T21:32:07.396Z,59.04
2023-01-29T21:34:35.366Z,59.70
2023-01-29T21:37:02.798Z,60.53
2023-01-29T21:39:30.564Z,60.41
2023-01-29T21:42:16.405Z,60.56
2023-01-29T21:44:43.871Z,60.75
2023-01-29T21:47:14.063Z,60.13
2023-01-29T21:49:43.355Z,60.37
2023-01-29T21:52:13.110Z,60.76
2023-01-29T21:54:41.405Z,60.00
2023-01-29T21:57:13.137Z,60.04
2023-01-29T21:59:40.768Z,60.15
2023-01-29T22:02:13.701Z,60.33
2023-01-29T22:04:43.299Z,59.97
2023-01-29T22:07:18.828Z,60.54
2023-01-29T22:09:46.572Z,60.45
2023-01-29T22:12:15.224Z,60.82
2023-01-29T22:14:42.791Z,60.35
2023-01-29T22:17:10.883Z,60.30
2023-01-29T22:22:20.121Z,60.20
2023-01-29T22:24:47.564Z,60.25
2023-01-29T22:27:15.778Z,61.05
2023-01-29T22:32:27.820Z,59.76
2023-01-29T22:34:55.841Z,59.27
2023-01-29T22:37:23.346Z,59.17
2023-01-29T22:39:50.709Z,59.42
2023-01-29T22:42:21.327Z,59.64
2023-01-29T22:44:50.652Z,59.21
2023-01-29T22:47:19.157Z,59.49
2023-01-29T22:49:49.476Z,59.61
2023-01-29T22:52:20.462Z,59.63
2023-01-29T22:54:47.903Z,58.69
2023-01-29T22:57:16.176Z,59.28
2023-01-29T22:59:43.801Z,59.36
2023-01-29T23:02:11.649Z,59.57
2023-01-29T23:04:39.172Z,59.31
2023-01-29T23:07:06.774Z,59.17
2023-01-29T23:12:17.190Z,58.87
2023-01-29T23:14:44.515Z,58.19
2023-01-29T23:17:12.104Z,57.82
2023-01-29T23:19:40.806Z,57.05
2023-01-29T23:22:08.176Z,57.34
2023-01-29T23:24:37.222Z,57.45
2023-01-29T23:27:17.686Z,57.98
2023-01-29T23:29:48.006Z,57.89
2023-01-29T23:32:18.529Z,59.21
2023-01-29T23:34:46.333Z,58.64
2023-01-29T23:37:13.903Z,58.33
2023-01-29T23:39:43.285Z,58.69
2023-01-29T23:42:10.665Z,57.55
2023-01-29T23:44:38.243Z,57.85
2023-01-29T23:47:05.641Z,58.04
2023-01-29T23:49:33.392Z,57.66
2023-01-29T23:52:01.072Z,58.13
2023-01-29T23:54:28.639Z,56.88
2023-01-29T23:56:56.047Z,57.33
2023-01-29T23:59:23.506Z,57.87
